EGAC/BHD METAR and TAF weather

Enter ICAO airport designator
Station Type Date Time Source
EGAC METAR 2020/09/19 01:50 UTC NOAA

EGAC 190150Z AUTO 06009KT 9999 NCD 10/09 Q1025


Station Type Date Time Source
EGAC Decoded METAR 2020/09/19 01:50 UTC NOAA

Belfast / Harbour, United Kingdom (EGAC) 54-36N 005-53W 0M
Sep 18, 2020 - 09:50 PM EDT / 2020.09.19 0150 UTC
Wind: from the ENE (060 degrees) at 10 MPH (9 KT):0
Visibility: greater than 7 mile(s):0
Temperature: 50 F (10 C)
Dew Point: 48 F (9 C)
Relative Humidity: 93%
Pressure (altimeter): 30.27 in. Hg (1025 hPa)
ob: EGAC 190150Z AUTO 06009KT 9999 NCD 10/09 Q1025
cycle: 2

Station Type Date Time Source
EGAC TAF UTC NOAA

Error!

Example: see airport list